OCN75M EDDF-LCLK
Flight info
| Callsign | OCN75M |
|---|---|
| Flight time | 3h 27m |
| Altitude | 35000 |
| Route | CINDY8S/18 CINDY Z74 LAMPU DCT NOMBO Y161 MAH DCT VAVOR DCT RADIZ DCT MODRO DCT DARZA DCT PINDO DCT LUSES DCT NEVRA DCT AKINA DCT USINI UL995 RDS UM601 EVENO DCT DASNI M601 BONEK |
| Aircraft | A320/M-SDE3FGHIRWY/LB1 |
Departure
| Time | 2026-04-15 11:55 |
|---|---|
| Airport | Frankfurt Main Airport (EDDF) |
Arrival
| Time | 2026-04-15 15:22 |
|---|---|
| Airport | Larnaca International Airport (LCLK) |
| Time | Latitude | Longitude | Altitude | Speed | Heading |
|---|---|---|---|---|---|
| 2026-04-15 11:14 | 50.04120 | 8.55822 | 354 ft | 0 kts | 160° |
| 2026-04-15 11:43 | 50.04119 | 8.55822 | 351 ft | 0 kts | 160° |
| 2026-04-15 11:44 | 50.04101 | 8.55833 | 358 ft | 4 kts | 160° |
| 2026-04-15 11:44 | 50.04082 | 8.55844 | 356 ft | 2 kts | 160° |
| 2026-04-15 11:44 | 50.04046 | 8.55858 | 353 ft | 7 kts | 180° |
| 2026-04-15 11:44 | 50.04005 | 8.55767 | 357 ft | 11 kts | 250° |
| 2026-04-15 11:45 | 50.03979 | 8.55659 | 353 ft | 10 kts | 249° |
| 2026-04-15 11:45 | 50.03953 | 8.55550 | 351 ft | 11 kts | 250° |
| 2026-04-15 11:45 | 50.03923 | 8.55422 | 356 ft | 17 kts | 249° |
| 2026-04-15 11:45 | 50.03872 | 8.55210 | 356 ft | 25 kts | 249° |
| 2026-04-15 11:46 | 50.03808 | 8.54942 | 357 ft | 27 kts | 249° |
| 2026-04-15 11:46 | 50.03740 | 8.54661 | 350 ft | 28 kts | 250° |
| 2026-04-15 11:46 | 50.03673 | 8.54381 | 348 ft | 28 kts | 249° |
| 2026-04-15 11:46 | 50.03612 | 8.54126 | 347 ft | 23 kts | 249° |
| 2026-04-15 11:47 | 50.03554 | 8.53883 | 338 ft | 24 kts | 249° |
| 2026-04-15 11:47 | 50.03493 | 8.53629 | 339 ft | 26 kts | 249° |
| 2026-04-15 11:47 | 50.03434 | 8.53382 | 336 ft | 21 kts | 250° |
| 2026-04-15 11:47 | 50.03382 | 8.53164 | 335 ft | 18 kts | 249° |
| 2026-04-15 11:48 | 50.03345 | 8.53012 | 332 ft | 14 kts | 250° |
| 2026-04-15 11:48 | 50.03322 | 8.52911 | 333 ft | 6 kts | 250° |
| 2026-04-15 11:48 | 50.03318 | 8.52895 | 330 ft | 0 kts | 250° |
| 2026-04-15 11:48 | 50.03316 | 8.52886 | 332 ft | 3 kts | 250° |
| 2026-04-15 11:49 | 50.03306 | 8.52843 | 333 ft | 8 kts | 250° |
| 2026-04-15 11:49 | 50.03283 | 8.52750 | 331 ft | 6 kts | 249° |
| 2026-04-15 11:49 | 50.03282 | 8.52745 | 331 ft | 0 kts | 249° |
| 2026-04-15 11:52 | 50.03276 | 8.52720 | 333 ft | 7 kts | 249° |
| 2026-04-15 11:52 | 50.03259 | 8.52648 | 331 ft | 6 kts | 249° |
| 2026-04-15 11:52 | 50.03230 | 8.52595 | 332 ft | 6 kts | 199° |
| 2026-04-15 11:53 | 50.03209 | 8.52593 | 334 ft | 0 kts | 177° |
| 2026-04-15 11:54 | 50.03208 | 8.52593 | 335 ft | 1 kts | 177° |
| 2026-04-15 11:54 | 50.03033 | 8.52596 | 330 ft | 62 kts | 179° |
| 2026-04-15 11:54 | 50.02377 | 8.52603 | 335 ft | 124 kts | 179° |
| 2026-04-15 11:54 | 50.01341 | 8.52613 | 333 ft | 172 kts | 179° |
| 2026-04-15 11:55 | 50.00111 | 8.52653 | 888 ft | 174 kts | 178° |
| 2026-04-15 11:55 | 49.98894 | 8.52677 | 1623 ft | 177 kts | 177° |
| 2026-04-15 11:55 | 49.97611 | 8.52765 | 1918 ft | 194 kts | 166° |
| 2026-04-15 11:55 | 49.96368 | 8.53761 | 2105 ft | 211 kts | 133° |
| 2026-04-15 11:56 | 49.95534 | 8.55703 | 2523 ft | 222 kts | 118° |
| 2026-04-15 11:56 | 49.94776 | 8.57812 | 3183 ft | 225 kts | 118° |
| 2026-04-15 11:56 | 49.94134 | 8.60031 | 3819 ft | 229 kts | 103° |
| 2026-04-15 11:56 | 49.93968 | 8.62587 | 4096 ft | 249 kts | 94° |
| 2026-04-15 11:57 | 49.93875 | 8.65331 | 4742 ft | 258 kts | 94° |
| 2026-04-15 11:57 | 49.92735 | 8.70561 | 6197 ft | 266 kts | 136° |
| 2026-04-15 11:57 | 49.91269 | 8.72326 | 6926 ft | 269 kts | 146° |
| 2026-04-15 11:58 | 49.89729 | 8.74009 | 7628 ft | 273 kts | 144° |
| 2026-04-15 11:58 | 49.88339 | 8.76054 | 8296 ft | 279 kts | 129° |
| 2026-04-15 11:58 | 49.87300 | 8.78627 | 9006 ft | 284 kts | 120° |
| 2026-04-15 11:58 | 49.86334 | 8.81318 | 9720 ft | 288 kts | 121° |
| 2026-04-15 11:59 | 49.85347 | 8.84043 | 10372 ft | 293 kts | 121° |
| 2026-04-15 11:59 | 49.84309 | 8.86889 | 10575 ft | 315 kts | 120° |
| 2026-04-15 11:59 | 49.83192 | 8.89948 | 10732 ft | 336 kts | 120° |
| 2026-04-15 11:59 | 49.82031 | 8.93146 | 11203 ft | 344 kts | 120° |
| 2026-04-15 12:00 | 49.80853 | 8.96400 | 11804 ft | 348 kts | 120° |
| 2026-04-15 12:00 | 49.79660 | 8.99687 | 12427 ft | 352 kts | 120° |
| 2026-04-15 12:00 | 49.78451 | 9.03003 | 13042 ft | 356 kts | 120° |
| 2026-04-15 12:00 | 49.77230 | 9.06345 | 13650 ft | 359 kts | 120° |
| 2026-04-15 12:01 | 49.76158 | 9.09866 | 14172 ft | 365 kts | 110° |
| 2026-04-15 12:01 | 49.75478 | 9.13678 | 14662 ft | 369 kts | 104° |
| 2026-04-15 12:01 | 49.74662 | 9.17446 | 15202 ft | 371 kts | 115° |
| 2026-04-15 12:01 | 49.73384 | 9.20906 | 15779 ft | 372 kts | 126° |
| 2026-04-15 12:02 | 49.71727 | 9.23993 | 16308 ft | 375 kts | 132° |
| 2026-04-15 12:02 | 49.70002 | 9.27020 | 16856 ft | 377 kts | 132° |
| 2026-04-15 12:02 | 49.68265 | 9.30083 | 17375 ft | 380 kts | 133° |
| 2026-04-15 12:02 | 49.66520 | 9.33165 | 17896 ft | 383 kts | 132° |
| 2026-04-15 12:03 | 49.65355 | 9.35220 | 18249 ft | 384 kts | 133° |
| 2026-04-15 12:03 | 49.62981 | 9.39369 | 18878 ft | 388 kts | 134° |
| 2026-04-15 12:03 | 49.61676 | 9.41254 | 19159 ft | 389 kts | 141° |
| 2026-04-15 12:03 | 49.59450 | 9.43627 | 19588 ft | 390 kts | 150° |
| 2026-04-15 12:04 | 49.57108 | 9.45764 | 19995 ft | 393 kts | 149° |
| 2026-04-15 12:04 | 49.54937 | 9.48341 | 20372 ft | 397 kts | 134° |
| 2026-04-15 12:04 | 49.53047 | 9.51467 | 20752 ft | 401 kts | 133° |
| 2026-04-15 12:04 | 49.51159 | 9.54645 | 21150 ft | 404 kts | 132° |
| 2026-04-15 12:05 | 49.49262 | 9.57852 | 21525 ft | 407 kts | 132° |
| 2026-04-15 12:05 | 49.47345 | 9.61094 | 21911 ft | 411 kts | 132° |
| 2026-04-15 12:05 | 49.45415 | 9.64345 | 22333 ft | 413 kts | 132° |
| 2026-04-15 12:05 | 49.43470 | 9.67606 | 22716 ft | 415 kts | 132° |
| 2026-04-15 12:06 | 49.41509 | 9.70879 | 23114 ft | 417 kts | 133° |
| 2026-04-15 12:06 | 49.39538 | 9.74169 | 23521 ft | 419 kts | 133° |
| 2026-04-15 12:06 | 49.37558 | 9.77472 | 23866 ft | 422 kts | 133° |
| 2026-04-15 12:06 | 49.35560 | 9.80796 | 24176 ft | 425 kts | 132° |
| 2026-04-15 12:07 | 49.33551 | 9.84137 | 24495 ft | 427 kts | 131° |
| 2026-04-15 12:07 | 49.31532 | 9.87496 | 24781 ft | 430 kts | 131° |
| 2026-04-15 12:07 | 49.29501 | 9.90870 | 25071 ft | 432 kts | 131° |
| 2026-04-15 12:07 | 49.27455 | 9.94264 | 25355 ft | 435 kts | 131° |
| 2026-04-15 12:08 | 49.25396 | 9.97677 | 25624 ft | 437 kts | 131° |
| 2026-04-15 12:08 | 49.23326 | 10.01103 | 25895 ft | 440 kts | 131° |
| 2026-04-15 12:08 | 49.21242 | 10.04548 | 26167 ft | 442 kts | 131° |
| 2026-04-15 12:08 | 49.19145 | 10.08010 | 26439 ft | 445 kts | 131° |
| 2026-04-15 12:09 | 49.17034 | 10.11491 | 26714 ft | 448 kts | 131° |
| 2026-04-15 12:09 | 49.14908 | 10.14984 | 26984 ft | 450 kts | 131° |
| 2026-04-15 12:09 | 49.12770 | 10.18489 | 27244 ft | 453 kts | 131° |
| 2026-04-15 12:09 | 49.10617 | 10.22013 | 27532 ft | 455 kts | 130° |
| 2026-04-15 12:10 | 49.08466 | 10.25533 | 27817 ft | 457 kts | 130° |
| 2026-04-15 12:10 | 49.06299 | 10.29085 | 28086 ft | 459 kts | 130° |
| 2026-04-15 12:10 | 49.04111 | 10.32672 | 28342 ft | 461 kts | 130° |
| 2026-04-15 12:10 | 49.01917 | 10.36261 | 28585 ft | 464 kts | 130° |
| 2026-04-15 12:11 | 48.99706 | 10.39866 | 28833 ft | 466 kts | 130° |
| 2026-04-15 12:11 | 48.97483 | 10.43474 | 29083 ft | 468 kts | 130° |
| 2026-04-15 12:11 | 48.95244 | 10.47092 | 29306 ft | 471 kts | 130° |
| 2026-04-15 12:11 | 48.92998 | 10.50724 | 29520 ft | 473 kts | 130° |
| 2026-04-15 12:12 | 48.90739 | 10.54379 | 29743 ft | 475 kts | 130° |
| 2026-04-15 12:12 | 48.88473 | 10.58047 | 29979 ft | 477 kts | 130° |
| 2026-04-15 12:12 | 48.86199 | 10.61728 | 30231 ft | 478 kts | 129° |
| 2026-04-15 12:12 | 48.83922 | 10.65412 | 30431 ft | 480 kts | 129° |
| 2026-04-15 12:13 | 48.81632 | 10.69102 | 30692 ft | 479 kts | 129° |
| 2026-04-15 12:13 | 48.79345 | 10.72775 | 30949 ft | 479 kts | 129° |
| 2026-04-15 12:13 | 48.77055 | 10.76444 | 31211 ft | 479 kts | 129° |
| 2026-04-15 12:13 | 48.74766 | 10.80110 | 31472 ft | 479 kts | 129° |
| 2026-04-15 12:14 | 48.72479 | 10.83771 | 31713 ft | 478 kts | 129° |
| 2026-04-15 12:14 | 48.70191 | 10.87428 | 31950 ft | 478 kts | 129° |
| 2026-04-15 12:14 | 48.67902 | 10.91086 | 32197 ft | 478 kts | 129° |
| 2026-04-15 12:14 | 48.65619 | 10.94736 | 32480 ft | 478 kts | 129° |
| 2026-04-15 12:15 | 48.63335 | 10.98381 | 32748 ft | 477 kts | 128° |
| 2026-04-15 12:15 | 48.61047 | 11.02022 | 33014 ft | 477 kts | 128° |
| 2026-04-15 12:15 | 48.58759 | 11.05652 | 33264 ft | 477 kts | 129° |
| 2026-04-15 12:15 | 48.56467 | 11.09275 | 33510 ft | 477 kts | 128° |
| 2026-04-15 12:16 | 48.54174 | 11.12891 | 33750 ft | 477 kts | 128° |
| 2026-04-15 12:16 | 48.51879 | 11.16512 | 34006 ft | 477 kts | 128° |
| 2026-04-15 12:16 | 48.49591 | 11.20121 | 34250 ft | 476 kts | 128° |
| 2026-04-15 12:16 | 48.47303 | 11.23730 | 34484 ft | 476 kts | 128° |
| 2026-04-15 12:17 | 48.45020 | 11.27330 | 34724 ft | 475 kts | 128° |
| 2026-04-15 12:17 | 48.42740 | 11.30923 | 34981 ft | 473 kts | 128° |
| 2026-04-15 12:17 | 48.40467 | 11.34502 | 35175 ft | 473 kts | 128° |
| 2026-04-15 12:18 | 48.35937 | 11.41606 | 35230 ft | 469 kts | 128° |
| 2026-04-15 12:18 | 48.31416 | 11.48668 | 35225 ft | 469 kts | 128° |
| 2026-04-15 12:19 | 48.26861 | 11.55759 | 35222 ft | 468 kts | 128° |
| 2026-04-15 12:19 | 48.22520 | 11.62514 | 35246 ft | 468 kts | 128° |
| 2026-04-15 12:20 | 48.18003 | 11.69525 | 35217 ft | 467 kts | 128° |
| 2026-04-15 12:20 | 48.13485 | 11.76504 | 35217 ft | 467 kts | 128° |
| 2026-04-15 12:21 | 48.08993 | 11.83431 | 35224 ft | 467 kts | 128° |
| 2026-04-15 12:21 | 48.04469 | 11.90392 | 35228 ft | 467 kts | 128° |
| 2026-04-15 12:22 | 47.99912 | 11.97382 | 35252 ft | 466 kts | 128° |
| 2026-04-15 12:22 | 47.95419 | 12.04259 | 35253 ft | 465 kts | 128° |
| 2026-04-15 12:23 | 47.90901 | 12.11154 | 35250 ft | 465 kts | 128° |
| 2026-04-15 12:23 | 47.86373 | 12.18028 | 35248 ft | 464 kts | 128° |
| 2026-04-15 12:24 | 47.81853 | 12.24886 | 35240 ft | 464 kts | 128° |
| 2026-04-15 12:24 | 47.77333 | 12.31730 | 35231 ft | 464 kts | 128° |
| 2026-04-15 12:25 | 47.72808 | 12.38556 | 35236 ft | 463 kts | 128° |
| 2026-04-15 12:25 | 47.68289 | 12.45355 | 35227 ft | 462 kts | 128° |
| 2026-04-15 12:26 | 47.63771 | 12.52144 | 35229 ft | 462 kts | 128° |
| 2026-04-15 12:26 | 47.58879 | 12.58421 | 35213 ft | 466 kts | 135° |
| 2026-04-15 12:27 | 47.53846 | 12.64489 | 35233 ft | 467 kts | 135° |
| 2026-04-15 12:27 | 47.48824 | 12.70540 | 35218 ft | 465 kts | 135° |
| 2026-04-15 12:28 | 47.43824 | 12.76573 | 35201 ft | 463 kts | 135° |
| 2026-04-15 12:28 | 47.38830 | 12.82574 | 35192 ft | 462 kts | 135° |
| 2026-04-15 12:29 | 47.33839 | 12.88550 | 35183 ft | 462 kts | 135° |
| 2026-04-15 12:29 | 47.28852 | 12.94510 | 35191 ft | 462 kts | 136° |
| 2026-04-15 12:30 | 47.23868 | 13.00460 | 35195 ft | 460 kts | 136° |
| 2026-04-15 12:30 | 47.18893 | 13.06372 | 35193 ft | 459 kts | 136° |
| 2026-04-15 12:31 | 47.13926 | 13.12263 | 35195 ft | 459 kts | 136° |
| 2026-04-15 12:31 | 47.08957 | 13.18139 | 35191 ft | 458 kts | 136° |
| 2026-04-15 12:32 | 47.03993 | 13.24005 | 35182 ft | 458 kts | 136° |
| 2026-04-15 12:32 | 46.99036 | 13.29844 | 35212 ft | 457 kts | 138° |
| 2026-04-15 12:33 | 46.94071 | 13.35669 | 35208 ft | 457 kts | 138° |
| 2026-04-15 12:33 | 46.89115 | 13.41479 | 35210 ft | 456 kts | 138° |
| 2026-04-15 12:34 | 46.84166 | 13.47270 | 35208 ft | 456 kts | 138° |
| 2026-04-15 12:34 | 46.79201 | 13.53058 | 35217 ft | 457 kts | 138° |
| 2026-04-15 12:35 | 46.74234 | 13.58822 | 35234 ft | 456 kts | 139° |
| 2026-04-15 12:35 | 46.69281 | 13.64573 | 35237 ft | 455 kts | 139° |
| 2026-04-15 12:36 | 46.64331 | 13.70304 | 35225 ft | 454 kts | 140° |
| 2026-04-15 12:36 | 46.59390 | 13.76018 | 35233 ft | 454 kts | 140° |
| 2026-04-15 12:37 | 46.54441 | 13.81703 | 35217 ft | 453 kts | 140° |
| 2026-04-15 12:37 | 46.49495 | 13.87382 | 35235 ft | 453 kts | 140° |
| 2026-04-15 12:38 | 46.44561 | 13.93042 | 35235 ft | 452 kts | 141° |
| 2026-04-15 12:38 | 46.39628 | 13.98691 | 35238 ft | 452 kts | 141° |
| 2026-04-15 12:39 | 46.34694 | 14.04322 | 35234 ft | 452 kts | 141° |
| 2026-04-15 12:39 | 46.29757 | 14.09939 | 35230 ft | 451 kts | 141° |
| 2026-04-15 12:40 | 46.24830 | 14.15550 | 35237 ft | 450 kts | 142° |
| 2026-04-15 12:40 | 46.19911 | 14.21126 | 35237 ft | 449 kts | 142° |
| 2026-04-15 12:41 | 46.14989 | 14.26681 | 35233 ft | 449 kts | 142° |
| 2026-04-15 12:41 | 46.10071 | 14.32222 | 35234 ft | 449 kts | 142° |
| 2026-04-15 12:42 | 46.05155 | 14.37749 | 35225 ft | 448 kts | 142° |
| 2026-04-15 12:42 | 46.00269 | 14.43319 | 35226 ft | 448 kts | 143° |
| 2026-04-15 12:43 | 45.95398 | 14.48912 | 35231 ft | 448 kts | 143° |
| 2026-04-15 12:43 | 45.90529 | 14.54476 | 35233 ft | 447 kts | 143° |
| 2026-04-15 12:44 | 45.85657 | 14.60013 | 35227 ft | 447 kts | 143° |
| 2026-04-15 12:44 | 45.80786 | 14.65535 | 35228 ft | 446 kts | 143° |
| 2026-04-15 12:45 | 45.75913 | 14.71055 | 35220 ft | 447 kts | 144° |
| 2026-04-15 12:45 | 45.71032 | 14.76560 | 35218 ft | 447 kts | 144° |
| 2026-04-15 12:46 | 45.66148 | 14.82066 | 35215 ft | 447 kts | 144° |
| 2026-04-15 12:46 | 45.61254 | 14.87558 | 35215 ft | 447 kts | 144° |
| 2026-04-15 12:47 | 45.56360 | 14.93041 | 35213 ft | 447 kts | 144° |
| 2026-04-15 12:47 | 45.51467 | 14.98513 | 35213 ft | 446 kts | 144° |
| 2026-04-15 12:48 | 45.46653 | 15.04105 | 35212 ft | 447 kts | 141° |
| 2026-04-15 12:48 | 45.42127 | 15.10201 | 35217 ft | 448 kts | 138° |
| 2026-04-15 12:49 | 45.37663 | 15.16401 | 35218 ft | 448 kts | 139° |
| 2026-04-15 12:49 | 45.33132 | 15.22485 | 35220 ft | 447 kts | 140° |
| 2026-04-15 12:50 | 45.28564 | 15.28469 | 35221 ft | 446 kts | 140° |
| 2026-04-15 12:50 | 45.23999 | 15.34421 | 35218 ft | 445 kts | 140° |
| 2026-04-15 12:51 | 45.19457 | 15.40385 | 35211 ft | 445 kts | 140° |
| 2026-04-15 12:51 | 45.14918 | 15.46354 | 35209 ft | 445 kts | 140° |
| 2026-04-15 12:52 | 45.10375 | 15.52297 | 35205 ft | 445 kts | 139° |
| 2026-04-15 12:52 | 45.05823 | 15.58219 | 35211 ft | 444 kts | 139° |
| 2026-04-15 12:53 | 45.01283 | 15.64120 | 35216 ft | 443 kts | 139° |
| 2026-04-15 12:53 | 44.96748 | 15.70009 | 35208 ft | 443 kts | 139° |
| 2026-04-15 12:54 | 44.92947 | 15.74935 | 35210 ft | 442 kts | 139° |
| 2026-04-15 12:54 | 44.88409 | 15.80798 | 35200 ft | 442 kts | 140° |
| 2026-04-15 12:55 | 44.83874 | 15.86639 | 35204 ft | 442 kts | 140° |
| 2026-04-15 12:55 | 44.79365 | 15.92437 | 35199 ft | 442 kts | 140° |
| 2026-04-15 12:56 | 44.74789 | 15.98309 | 35203 ft | 442 kts | 140° |
| 2026-04-15 12:56 | 44.70280 | 16.04089 | 35191 ft | 442 kts | 140° |
| 2026-04-15 12:57 | 44.65735 | 16.09902 | 35185 ft | 442 kts | 140° |
| 2026-04-15 12:57 | 44.61179 | 16.15705 | 35161 ft | 442 kts | 139° |
| 2026-04-15 12:58 | 44.56627 | 16.21498 | 35163 ft | 442 kts | 139° |
| 2026-04-15 12:58 | 44.52073 | 16.27282 | 35155 ft | 442 kts | 139° |
| 2026-04-15 12:59 | 44.45234 | 16.35936 | 35160 ft | 441 kts | 139° |
| 2026-04-15 12:59 | 44.40691 | 16.41680 | 35166 ft | 439 kts | 139° |
| 2026-04-15 13:00 | 44.36168 | 16.47385 | 35173 ft | 437 kts | 139° |
| 2026-04-15 13:00 | 44.31663 | 16.53056 | 35170 ft | 435 kts | 140° |
| 2026-04-15 13:01 | 44.27182 | 16.58680 | 35168 ft | 433 kts | 140° |
| 2026-04-15 13:01 | 44.22701 | 16.64279 | 35153 ft | 432 kts | 140° |
| 2026-04-15 13:02 | 44.18270 | 16.69809 | 35147 ft | 431 kts | 139° |
| 2026-04-15 13:02 | 44.13878 | 16.75297 | 35135 ft | 431 kts | 139° |
| 2026-04-15 13:03 | 44.09337 | 16.80950 | 35143 ft | 430 kts | 139° |
| 2026-04-15 13:03 | 44.04874 | 16.86487 | 35134 ft | 430 kts | 139° |
| 2026-04-15 13:04 | 44.00412 | 16.92013 | 35121 ft | 430 kts | 139° |
| 2026-04-15 13:04 | 43.95941 | 16.97525 | 35117 ft | 430 kts | 140° |
| 2026-04-15 13:05 | 43.91468 | 17.03034 | 35108 ft | 430 kts | 140° |
| 2026-04-15 13:05 | 43.87007 | 17.08528 | 35118 ft | 428 kts | 139° |
| 2026-04-15 13:06 | 43.82553 | 17.14006 | 35106 ft | 428 kts | 139° |
| 2026-04-15 13:06 | 43.78094 | 17.19478 | 35104 ft | 428 kts | 139° |
| 2026-04-15 13:07 | 43.73629 | 17.24940 | 35098 ft | 428 kts | 139° |
| 2026-04-15 13:07 | 43.69192 | 17.30355 | 35098 ft | 428 kts | 139° |
| 2026-04-15 13:08 | 43.64729 | 17.35800 | 35089 ft | 428 kts | 139° |
| 2026-04-15 13:08 | 43.60236 | 17.41262 | 35091 ft | 427 kts | 139° |
| 2026-04-15 13:09 | 43.55770 | 17.46674 | 35087 ft | 427 kts | 139° |
| 2026-04-15 13:09 | 43.51306 | 17.52074 | 35084 ft | 427 kts | 139° |
| 2026-04-15 13:10 | 43.46868 | 17.57435 | 35090 ft | 427 kts | 139° |
| 2026-04-15 13:10 | 43.42403 | 17.62820 | 35087 ft | 426 kts | 139° |
| 2026-04-15 13:11 | 43.37937 | 17.68194 | 35082 ft | 426 kts | 139° |
| 2026-04-15 13:11 | 43.33466 | 17.73560 | 35074 ft | 427 kts | 139° |
| 2026-04-15 13:12 | 43.28989 | 17.78929 | 35068 ft | 427 kts | 139° |
| 2026-04-15 13:12 | 43.24506 | 17.84286 | 35045 ft | 427 kts | 140° |
| 2026-04-15 13:13 | 43.20019 | 17.89631 | 35046 ft | 428 kts | 140° |
| 2026-04-15 13:13 | 43.15531 | 17.94983 | 35062 ft | 427 kts | 140° |
| 2026-04-15 13:14 | 43.11044 | 18.00325 | 35067 ft | 427 kts | 140° |
| 2026-04-15 13:14 | 43.06553 | 18.05655 | 35076 ft | 427 kts | 140° |
| 2026-04-15 13:15 | 43.02070 | 18.10966 | 35089 ft | 426 kts | 140° |
| 2026-04-15 13:15 | 42.97583 | 18.16267 | 35095 ft | 426 kts | 140° |
| 2026-04-15 13:16 | 42.93094 | 18.21560 | 35085 ft | 426 kts | 140° |
| 2026-04-15 13:16 | 42.88606 | 18.26841 | 35088 ft | 426 kts | 140° |
| 2026-04-15 13:17 | 42.84112 | 18.32118 | 35092 ft | 427 kts | 140° |
| 2026-04-15 13:17 | 42.79612 | 18.37389 | 35095 ft | 427 kts | 141° |
| 2026-04-15 13:18 | 42.75108 | 18.42652 | 35099 ft | 427 kts | 141° |
| 2026-04-15 13:18 | 42.70607 | 18.47911 | 35094 ft | 426 kts | 142° |
| 2026-04-15 13:19 | 42.66112 | 18.53155 | 35099 ft | 425 kts | 142° |
| 2026-04-15 13:19 | 42.61624 | 18.58373 | 35086 ft | 425 kts | 142° |
| 2026-04-15 13:20 | 42.57140 | 18.63578 | 35090 ft | 424 kts | 142° |
| 2026-04-15 13:20 | 42.52657 | 18.68775 | 35088 ft | 424 kts | 142° |
| 2026-04-15 13:21 | 42.48171 | 18.73967 | 35089 ft | 424 kts | 142° |
| 2026-04-15 13:21 | 42.43684 | 18.79139 | 35066 ft | 423 kts | 143° |
| 2026-04-15 13:22 | 42.39204 | 18.84290 | 35070 ft | 423 kts | 143° |
| 2026-04-15 13:22 | 42.34735 | 18.89428 | 35062 ft | 422 kts | 143° |
| 2026-04-15 13:23 | 42.30269 | 18.94562 | 35064 ft | 421 kts | 143° |
| 2026-04-15 13:23 | 42.25800 | 18.99681 | 35058 ft | 421 kts | 143° |
| 2026-04-15 13:24 | 42.21327 | 19.04780 | 35054 ft | 420 kts | 144° |
| 2026-04-15 13:24 | 42.16867 | 19.09862 | 35054 ft | 420 kts | 144° |
| 2026-04-15 13:25 | 42.12398 | 19.14949 | 35038 ft | 421 kts | 144° |
| 2026-04-15 13:25 | 42.07921 | 19.20035 | 35033 ft | 422 kts | 144° |
| 2026-04-15 13:26 | 42.03435 | 19.25130 | 35036 ft | 422 kts | 144° |
| 2026-04-15 13:26 | 41.98944 | 19.30224 | 35040 ft | 422 kts | 144° |
| 2026-04-15 13:27 | 41.94449 | 19.35298 | 35044 ft | 422 kts | 145° |
| 2026-04-15 13:27 | 41.89950 | 19.40353 | 35050 ft | 421 kts | 145° |
| 2026-04-15 13:28 | 41.85457 | 19.45400 | 35050 ft | 421 kts | 145° |
| 2026-04-15 13:28 | 41.80966 | 19.50453 | 35043 ft | 422 kts | 145° |
| 2026-04-15 13:29 | 41.76471 | 19.55507 | 35042 ft | 422 kts | 146° |
| 2026-04-15 13:29 | 41.71961 | 19.60561 | 35045 ft | 423 kts | 146° |
| 2026-04-15 13:30 | 41.67445 | 19.65598 | 35069 ft | 422 kts | 146° |
| 2026-04-15 13:30 | 41.62931 | 19.70615 | 35073 ft | 422 kts | 146° |
| 2026-04-15 13:31 | 41.58428 | 19.75640 | 35078 ft | 421 kts | 146° |
| 2026-04-15 13:31 | 41.53931 | 19.80647 | 35064 ft | 421 kts | 146° |
| 2026-04-15 13:32 | 41.49416 | 19.85653 | 35052 ft | 423 kts | 147° |
| 2026-04-15 13:32 | 41.44883 | 19.90659 | 35075 ft | 423 kts | 147° |
| 2026-04-15 13:33 | 41.40347 | 19.95665 | 35079 ft | 423 kts | 147° |
| 2026-04-15 13:33 | 41.35810 | 20.00667 | 35082 ft | 424 kts | 147° |
| 2026-04-15 13:34 | 41.31269 | 20.05662 | 35082 ft | 423 kts | 147° |
| 2026-04-15 13:34 | 41.26723 | 20.10644 | 35095 ft | 423 kts | 147° |
| 2026-04-15 13:35 | 41.22180 | 20.15629 | 35078 ft | 424 kts | 146° |
| 2026-04-15 13:35 | 41.17622 | 20.20616 | 35086 ft | 425 kts | 147° |
| 2026-04-15 13:36 | 41.13820 | 20.24773 | 35082 ft | 426 kts | 147° |
| 2026-04-15 13:36 | 41.09244 | 20.29770 | 35084 ft | 426 kts | 147° |
| 2026-04-15 13:37 | 41.04660 | 20.34757 | 35104 ft | 427 kts | 147° |
| 2026-04-15 13:37 | 41.00068 | 20.39741 | 35103 ft | 427 kts | 147° |
| 2026-04-15 13:38 | 40.95479 | 20.44720 | 35104 ft | 427 kts | 147° |
| 2026-04-15 13:38 | 40.90885 | 20.49695 | 35099 ft | 427 kts | 147° |
| 2026-04-15 13:39 | 40.86270 | 20.54668 | 35098 ft | 429 kts | 147° |
| 2026-04-15 13:39 | 40.81649 | 20.59654 | 35099 ft | 429 kts | 147° |
| 2026-04-15 13:40 | 40.77020 | 20.64645 | 35110 ft | 430 kts | 147° |
| 2026-04-15 13:40 | 40.72387 | 20.69630 | 35115 ft | 430 kts | 147° |
| 2026-04-15 13:41 | 40.67749 | 20.74607 | 35117 ft | 430 kts | 147° |
| 2026-04-15 13:41 | 40.63101 | 20.79582 | 35122 ft | 431 kts | 147° |
| 2026-04-15 13:42 | 40.58446 | 20.84545 | 35110 ft | 432 kts | 147° |
| 2026-04-15 13:42 | 40.53778 | 20.89518 | 35125 ft | 432 kts | 147° |
| 2026-04-15 13:43 | 40.49104 | 20.94486 | 35135 ft | 432 kts | 147° |
| 2026-04-15 13:43 | 40.44674 | 20.99910 | 35130 ft | 437 kts | 143° |
| 2026-04-15 13:44 | 40.40323 | 21.05464 | 35154 ft | 436 kts | 143° |
| 2026-04-15 13:44 | 40.35969 | 21.10998 | 35154 ft | 436 kts | 143° |
| 2026-04-15 13:45 | 40.31607 | 21.16510 | 35155 ft | 435 kts | 143° |
| 2026-04-15 13:47 | 40.14212 | 21.38468 | 35172 ft | 433 kts | 143° |
| 2026-04-15 13:47 | 40.09868 | 21.43924 | 35182 ft | 433 kts | 143° |
| 2026-04-15 13:48 | 40.05528 | 21.49371 | 35186 ft | 432 kts | 143° |
| 2026-04-15 13:48 | 40.01187 | 21.54796 | 35175 ft | 432 kts | 143° |
| 2026-04-15 13:49 | 39.96846 | 21.60208 | 35176 ft | 432 kts | 143° |
| 2026-04-15 13:49 | 39.92503 | 21.65620 | 35170 ft | 432 kts | 143° |
| 2026-04-15 13:50 | 39.88163 | 21.71026 | 35176 ft | 431 kts | 142° |
| 2026-04-15 13:50 | 39.83828 | 21.76420 | 35174 ft | 431 kts | 142° |
| 2026-04-15 13:51 | 39.79488 | 21.81806 | 35135 ft | 431 kts | 142° |
| 2026-04-15 13:51 | 39.75132 | 21.87189 | 35141 ft | 433 kts | 142° |
| 2026-04-15 13:52 | 39.70769 | 21.92587 | 35131 ft | 434 kts | 142° |
| 2026-04-15 13:52 | 39.66394 | 21.97980 | 35134 ft | 434 kts | 142° |
| 2026-04-15 13:53 | 39.62011 | 22.03369 | 35129 ft | 434 kts | 142° |
| 2026-04-15 13:53 | 39.57630 | 22.08754 | 35118 ft | 435 kts | 142° |
| 2026-04-15 13:54 | 39.53269 | 22.14103 | 35105 ft | 435 kts | 142° |
| 2026-04-15 13:54 | 39.48831 | 22.19529 | 35103 ft | 436 kts | 142° |
| 2026-04-15 13:55 | 39.44416 | 22.24927 | 35105 ft | 437 kts | 142° |
| 2026-04-15 13:55 | 39.39993 | 22.30320 | 35114 ft | 437 kts | 142° |
| 2026-04-15 13:56 | 39.35564 | 22.35712 | 35113 ft | 437 kts | 142° |
| 2026-04-15 13:56 | 39.31252 | 22.41279 | 35111 ft | 443 kts | 134° |
| 2026-04-15 13:57 | 39.27756 | 22.47899 | 35098 ft | 447 kts | 129° |
| 2026-04-15 13:57 | 39.24314 | 22.54571 | 35135 ft | 447 kts | 129° |
| 2026-04-15 13:58 | 39.20886 | 22.61194 | 35151 ft | 447 kts | 129° |
| 2026-04-15 13:58 | 39.17433 | 22.67846 | 35159 ft | 446 kts | 129° |
| 2026-04-15 13:59 | 39.13977 | 22.74483 | 35163 ft | 446 kts | 129° |
| 2026-04-15 13:59 | 39.10519 | 22.81128 | 35160 ft | 447 kts | 129° |
| 2026-04-15 14:00 | 39.07052 | 22.87771 | 35157 ft | 447 kts | 129° |
| 2026-04-15 14:00 | 39.03589 | 22.94404 | 35161 ft | 446 kts | 129° |
| 2026-04-15 14:01 | 38.98378 | 23.04325 | 35140 ft | 446 kts | 129° |
| 2026-04-15 14:02 | 38.94906 | 23.10937 | 35129 ft | 446 kts | 128° |
| 2026-04-15 14:02 | 38.91433 | 23.17543 | 35133 ft | 446 kts | 129° |
| 2026-04-15 14:03 | 38.87947 | 23.24141 | 35135 ft | 446 kts | 129° |
| 2026-04-15 14:03 | 38.84458 | 23.30730 | 35130 ft | 447 kts | 129° |
| 2026-04-15 14:04 | 38.80963 | 23.37324 | 35139 ft | 447 kts | 129° |
| 2026-04-15 14:04 | 38.77422 | 23.43996 | 35132 ft | 447 kts | 129° |
| 2026-04-15 14:05 | 38.73971 | 23.50487 | 35132 ft | 447 kts | 129° |
| 2026-04-15 14:05 | 38.70465 | 23.57070 | 35132 ft | 447 kts | 129° |
| 2026-04-15 14:06 | 38.66950 | 23.63647 | 35132 ft | 448 kts | 129° |
| 2026-04-15 14:06 | 38.63432 | 23.70224 | 35126 ft | 448 kts | 129° |
| 2026-04-15 14:07 | 38.59905 | 23.76789 | 35117 ft | 448 kts | 129° |
| 2026-04-15 14:07 | 38.56365 | 23.83363 | 35117 ft | 449 kts | 129° |
| 2026-04-15 14:08 | 38.52827 | 23.89933 | 35118 ft | 449 kts | 129° |
| 2026-04-15 14:08 | 38.49284 | 23.96507 | 35118 ft | 449 kts | 129° |
| 2026-04-15 14:09 | 38.45731 | 24.03067 | 35118 ft | 449 kts | 129° |
| 2026-04-15 14:09 | 38.42173 | 24.09627 | 35105 ft | 450 kts | 128° |
| 2026-04-15 14:10 | 38.38616 | 24.16189 | 35109 ft | 450 kts | 128° |
| 2026-04-15 14:10 | 38.35059 | 24.22745 | 35113 ft | 450 kts | 129° |
| 2026-04-15 14:11 | 38.31485 | 24.29287 | 35114 ft | 450 kts | 129° |
| 2026-04-15 14:11 | 38.27906 | 24.35825 | 35105 ft | 450 kts | 129° |
| 2026-04-15 14:12 | 38.24325 | 24.42367 | 35091 ft | 451 kts | 128° |
| 2026-04-15 14:12 | 38.20740 | 24.48916 | 35096 ft | 451 kts | 128° |
| 2026-04-15 14:13 | 38.17143 | 24.55456 | 35104 ft | 452 kts | 131° |
| 2026-04-15 14:13 | 38.13043 | 24.61570 | 35119 ft | 460 kts | 135° |
| 2026-04-15 14:14 | 38.08792 | 24.67730 | 35105 ft | 466 kts | 135° |
| 2026-04-15 14:14 | 38.04516 | 24.73934 | 35104 ft | 467 kts | 135° |
| 2026-04-15 14:15 | 38.00242 | 24.80139 | 35105 ft | 467 kts | 135° |
| 2026-04-15 14:15 | 37.95954 | 24.86332 | 35101 ft | 467 kts | 135° |
| 2026-04-15 14:16 | 37.91674 | 24.92507 | 35104 ft | 467 kts | 135° |
| 2026-04-15 14:16 | 37.87384 | 24.98696 | 35100 ft | 467 kts | 135° |
| 2026-04-15 14:17 | 37.83099 | 25.04862 | 35087 ft | 466 kts | 135° |
| 2026-04-15 14:17 | 37.78815 | 25.11010 | 35098 ft | 465 kts | 135° |
| 2026-04-15 14:18 | 37.74537 | 25.17134 | 35095 ft | 465 kts | 135° |
| 2026-04-15 14:18 | 37.70982 | 25.22223 | 35095 ft | 465 kts | 135° |
| 2026-04-15 14:19 | 37.66005 | 25.29327 | 35089 ft | 464 kts | 135° |
| 2026-04-15 14:19 | 37.61724 | 25.35422 | 35094 ft | 463 kts | 135° |
| 2026-04-15 14:20 | 37.58152 | 25.40500 | 35110 ft | 461 kts | 135° |
| 2026-04-15 14:20 | 37.53909 | 25.46538 | 35108 ft | 459 kts | 135° |
| 2026-04-15 14:21 | 37.49682 | 25.52558 | 35100 ft | 458 kts | 135° |
| 2026-04-15 14:21 | 37.45453 | 25.58543 | 35088 ft | 457 kts | 135° |
| 2026-04-15 14:22 | 37.41216 | 25.64505 | 35074 ft | 457 kts | 135° |
| 2026-04-15 14:22 | 37.36995 | 25.70448 | 35092 ft | 455 kts | 135° |
| 2026-04-15 14:23 | 37.32784 | 25.76360 | 35085 ft | 453 kts | 135° |
| 2026-04-15 14:23 | 37.28589 | 25.82241 | 35078 ft | 452 kts | 135° |
| 2026-04-15 14:24 | 37.24402 | 25.88116 | 35079 ft | 451 kts | 135° |
| 2026-04-15 14:24 | 37.20220 | 25.93974 | 35073 ft | 450 kts | 135° |
| 2026-04-15 14:25 | 37.16038 | 25.99814 | 35063 ft | 450 kts | 135° |
| 2026-04-15 14:25 | 37.11858 | 26.05639 | 35059 ft | 449 kts | 135° |
| 2026-04-15 14:26 | 37.07680 | 26.11460 | 35065 ft | 449 kts | 135° |
| 2026-04-15 14:26 | 37.03500 | 26.17271 | 35065 ft | 449 kts | 136° |
| 2026-04-15 14:27 | 36.99354 | 26.23114 | 35047 ft | 451 kts | 131° |
| 2026-04-15 14:27 | 36.96271 | 26.29992 | 35051 ft | 458 kts | 117° |
| 2026-04-15 14:28 | 36.93804 | 26.37317 | 35055 ft | 457 kts | 117° |
| 2026-04-15 14:28 | 36.91320 | 26.44619 | 35050 ft | 456 kts | 117° |
| 2026-04-15 14:29 | 36.88829 | 26.51910 | 35051 ft | 456 kts | 117° |
| 2026-04-15 14:29 | 36.86336 | 26.59194 | 35045 ft | 456 kts | 117° |
| 2026-04-15 14:30 | 36.83841 | 26.66471 | 35050 ft | 456 kts | 117° |
| 2026-04-15 14:30 | 36.81343 | 26.73751 | 35051 ft | 456 kts | 117° |
| 2026-04-15 14:31 | 36.78836 | 26.81022 | 35058 ft | 456 kts | 117° |
| 2026-04-15 14:31 | 36.76326 | 26.88288 | 35045 ft | 456 kts | 117° |
| 2026-04-15 14:32 | 36.73817 | 26.95552 | 35041 ft | 457 kts | 117° |
| 2026-04-15 14:32 | 36.71308 | 27.02786 | 35043 ft | 458 kts | 117° |
| 2026-04-15 14:33 | 36.68775 | 27.10060 | 35046 ft | 458 kts | 117° |
| 2026-04-15 14:33 | 36.66231 | 27.17342 | 35041 ft | 458 kts | 117° |
| 2026-04-15 14:34 | 36.63678 | 27.24618 | 35024 ft | 459 kts | 117° |
| 2026-04-15 14:34 | 36.61120 | 27.31906 | 35024 ft | 460 kts | 117° |
| 2026-04-15 14:35 | 36.58562 | 27.39199 | 35025 ft | 460 kts | 117° |
| 2026-04-15 14:35 | 36.55986 | 27.46492 | 35024 ft | 460 kts | 117° |
| 2026-04-15 14:36 | 36.53408 | 27.53782 | 35018 ft | 462 kts | 117° |
| 2026-04-15 14:36 | 36.50819 | 27.61099 | 35014 ft | 463 kts | 117° |
| 2026-04-15 14:37 | 36.48224 | 27.68423 | 35015 ft | 463 kts | 117° |
| 2026-04-15 14:37 | 36.45616 | 27.75745 | 35013 ft | 464 kts | 117° |
| 2026-04-15 14:38 | 36.42998 | 27.83062 | 35015 ft | 464 kts | 117° |
| 2026-04-15 14:38 | 36.40384 | 27.90382 | 35018 ft | 464 kts | 117° |
| 2026-04-15 14:39 | 36.37761 | 27.97699 | 35022 ft | 464 kts | 117° |
| 2026-04-15 14:39 | 36.35134 | 28.05014 | 35024 ft | 464 kts | 117° |
| 2026-04-15 14:40 | 36.32885 | 28.12539 | 35005 ft | 468 kts | 110° |
| 2026-04-15 14:40 | 36.30922 | 28.20242 | 34994 ft | 470 kts | 110° |
| 2026-04-15 14:41 | 36.28933 | 28.27984 | 35292 ft | 472 kts | 110° |
| 2026-04-15 14:41 | 36.27940 | 28.31861 | 35509 ft | 472 kts | 110° |
| 2026-04-15 14:41 | 36.26948 | 28.35731 | 35719 ft | 472 kts | 110° |
| 2026-04-15 14:41 | 36.25953 | 28.39612 | 35883 ft | 472 kts | 111° |
| 2026-04-15 14:42 | 36.24955 | 28.43490 | 36032 ft | 473 kts | 111° |
| 2026-04-15 14:42 | 36.23950 | 28.47374 | 36207 ft | 474 kts | 111° |
| 2026-04-15 14:42 | 36.22942 | 28.51258 | 36389 ft | 473 kts | 111° |
| 2026-04-15 14:42 | 36.21933 | 28.55137 | 36583 ft | 473 kts | 111° |
| 2026-04-15 14:43 | 36.20924 | 28.59015 | 36766 ft | 473 kts | 111° |
| 2026-04-15 14:43 | 36.19914 | 28.62889 | 36941 ft | 473 kts | 111° |
| 2026-04-15 14:43 | 36.18903 | 28.66761 | 37015 ft | 473 kts | 111° |
| 2026-04-15 14:44 | 36.16881 | 28.74512 | 37025 ft | 474 kts | 111° |
| 2026-04-15 14:44 | 36.14853 | 28.82265 | 37024 ft | 473 kts | 111° |
| 2026-04-15 14:45 | 36.12818 | 28.90010 | 37025 ft | 473 kts | 111° |
| 2026-04-15 14:45 | 36.10778 | 28.97754 | 37014 ft | 473 kts | 111° |
| 2026-04-15 14:46 | 36.08730 | 29.05496 | 37019 ft | 474 kts | 112° |
| 2026-04-15 14:46 | 36.06672 | 29.13239 | 37021 ft | 474 kts | 112° |
| 2026-04-15 14:47 | 36.04613 | 29.20989 | 37022 ft | 475 kts | 112° |
| 2026-04-15 14:47 | 36.02551 | 29.28734 | 37015 ft | 475 kts | 112° |
| 2026-04-15 14:48 | 36.00473 | 29.36481 | 37024 ft | 475 kts | 112° |
| 2026-04-15 14:48 | 35.98388 | 29.44229 | 37026 ft | 475 kts | 112° |
| 2026-04-15 14:49 | 35.96308 | 29.51975 | 37033 ft | 476 kts | 112° |
| 2026-04-15 14:49 | 35.94221 | 29.59726 | 37022 ft | 476 kts | 112° |
| 2026-04-15 14:50 | 35.92135 | 29.67487 | 37021 ft | 477 kts | 112° |
| 2026-04-15 14:50 | 35.90043 | 29.75252 | 37025 ft | 477 kts | 112° |
| 2026-04-15 14:51 | 35.87945 | 29.83016 | 37020 ft | 477 kts | 111° |
| 2026-04-15 14:51 | 35.85834 | 29.90784 | 37019 ft | 478 kts | 112° |
| 2026-04-15 14:52 | 35.83715 | 29.98553 | 37023 ft | 479 kts | 112° |
| 2026-04-15 14:52 | 35.81656 | 30.06366 | 37029 ft | 480 kts | 110° |
| 2026-04-15 14:53 | 35.79715 | 30.14238 | 37015 ft | 480 kts | 110° |
| 2026-04-15 14:53 | 35.77766 | 30.22116 | 37022 ft | 481 kts | 110° |
| 2026-04-15 14:54 | 35.75774 | 30.29986 | 37022 ft | 482 kts | 111° |
| 2026-04-15 14:54 | 35.73767 | 30.37858 | 37024 ft | 482 kts | 111° |
| 2026-04-15 14:55 | 35.71756 | 30.45739 | 37020 ft | 483 kts | 110° |
| 2026-04-15 14:55 | 35.69744 | 30.53620 | 37023 ft | 483 kts | 110° |
| 2026-04-15 14:56 | 35.67726 | 30.61508 | 37029 ft | 483 kts | 111° |
| 2026-04-15 14:56 | 35.65686 | 30.69449 | 37031 ft | 484 kts | 111° |
| 2026-04-15 14:57 | 35.63659 | 30.77329 | 37034 ft | 484 kts | 111° |
| 2026-04-15 14:57 | 35.61634 | 30.85154 | 37035 ft | 484 kts | 111° |
| 2026-04-15 14:58 | 35.59618 | 30.93041 | 37035 ft | 484 kts | 110° |
| 2026-04-15 14:58 | 35.57634 | 31.00933 | 37020 ft | 483 kts | 110° |
| 2026-04-15 14:59 | 35.55656 | 31.08821 | 37021 ft | 483 kts | 110° |
| 2026-04-15 14:59 | 35.53647 | 31.16701 | 37026 ft | 483 kts | 110° |
| 2026-04-15 15:00 | 35.51630 | 31.24576 | 37014 ft | 484 kts | 110° |
| 2026-04-15 15:00 | 35.49933 | 31.31173 | 37017 ft | 484 kts | 111° |
| 2026-04-15 15:01 | 35.47921 | 31.38997 | 37021 ft | 484 kts | 110° |
| 2026-04-15 15:01 | 35.45881 | 31.46926 | 37025 ft | 484 kts | 111° |
| 2026-04-15 15:02 | 35.43842 | 31.54793 | 37019 ft | 484 kts | 111° |
| 2026-04-15 15:02 | 35.41801 | 31.62664 | 37017 ft | 485 kts | 111° |
| 2026-04-15 15:03 | 35.39754 | 31.70546 | 37025 ft | 485 kts | 111° |
| 2026-04-15 15:03 | 35.37704 | 31.78428 | 37022 ft | 486 kts | 111° |
| 2026-04-15 15:04 | 35.35662 | 31.86241 | 37029 ft | 484 kts | 111° |
| 2026-04-15 15:04 | 35.34617 | 31.90219 | 36729 ft | 485 kts | 111° |
| 2026-04-15 15:04 | 35.33572 | 31.94177 | 35755 ft | 491 kts | 111° |
| 2026-04-15 15:04 | 35.32519 | 31.98174 | 34911 ft | 495 kts | 111° |
| 2026-04-15 15:05 | 35.31464 | 32.02189 | 34144 ft | 496 kts | 111° |
| 2026-04-15 15:05 | 35.30406 | 32.06214 | 33280 ft | 497 kts | 110° |
| 2026-04-15 15:05 | 35.29350 | 32.10247 | 32383 ft | 498 kts | 110° |
| 2026-04-15 15:05 | 35.28293 | 32.14290 | 31481 ft | 500 kts | 109° |
| 2026-04-15 15:06 | 35.26173 | 32.22406 | 29631 ft | 502 kts | 109° |
| 2026-04-15 15:06 | 35.25105 | 32.26479 | 28524 ft | 503 kts | 109° |
| 2026-04-15 15:06 | 35.24035 | 32.30562 | 27395 ft | 506 kts | 109° |
| 2026-04-15 15:07 | 35.22959 | 32.34665 | 26242 ft | 508 kts | 109° |
| 2026-04-15 15:07 | 35.21873 | 32.38798 | 25106 ft | 511 kts | 108° |
| 2026-04-15 15:07 | 35.20789 | 32.42911 | 24485 ft | 506 kts | 108° |
| 2026-04-15 15:07 | 35.19708 | 32.47003 | 24211 ft | 506 kts | 108° |
| 2026-04-15 15:08 | 35.18628 | 32.51081 | 23483 ft | 503 kts | 108° |
| 2026-04-15 15:08 | 35.17553 | 32.55136 | 22497 ft | 499 kts | 108° |
| 2026-04-15 15:08 | 35.16486 | 32.59148 | 21680 ft | 493 kts | 109° |
| 2026-04-15 15:08 | 35.15432 | 32.63098 | 20882 ft | 484 kts | 108° |
| 2026-04-15 15:09 | 35.14404 | 32.66953 | 19606 ft | 473 kts | 109° |
| 2026-04-15 15:09 | 35.13398 | 32.70735 | 18364 ft | 463 kts | 109° |
| 2026-04-15 15:09 | 35.12411 | 32.74442 | 17000 ft | 455 kts | 109° |
| 2026-04-15 15:09 | 35.11439 | 32.78081 | 15677 ft | 448 kts | 109° |
| 2026-04-15 15:10 | 35.10480 | 32.81667 | 14447 ft | 441 kts | 109° |
| 2026-04-15 15:10 | 35.09550 | 32.85143 | 13964 ft | 417 kts | 109° |
| 2026-04-15 15:10 | 35.08681 | 32.88391 | 13784 ft | 389 kts | 110° |
| 2026-04-15 15:10 | 35.07857 | 32.91460 | 13162 ft | 375 kts | 109° |
| 2026-04-15 15:11 | 35.07055 | 32.94414 | 12379 ft | 368 kts | 110° |
| 2026-04-15 15:11 | 35.06233 | 32.97340 | 11587 ft | 362 kts | 110° |
| 2026-04-15 15:11 | 35.05412 | 33.00188 | 10923 ft | 353 kts | 111° |
| 2026-04-15 15:11 | 35.04584 | 33.03027 | 10446 ft | 356 kts | 111° |
| 2026-04-15 15:12 | 35.03755 | 33.05858 | 10077 ft | 355 kts | 111° |
| 2026-04-15 15:12 | 35.02927 | 33.08696 | 9679 ft | 353 kts | 110° |
| 2026-04-15 15:12 | 35.02115 | 33.11508 | 9269 ft | 350 kts | 110° |
| 2026-04-15 15:12 | 35.01119 | 33.14192 | 8864 ft | 346 kts | 123° |
| 2026-04-15 15:13 | 34.99645 | 33.16479 | 8478 ft | 342 kts | 137° |
| 2026-04-15 15:13 | 34.97921 | 33.18380 | 8120 ft | 324 kts | 140° |
| 2026-04-15 15:13 | 34.96285 | 33.20160 | 7785 ft | 308 kts | 140° |
| 2026-04-15 15:13 | 34.94719 | 33.21867 | 7439 ft | 297 kts | 139° |
| 2026-04-15 15:14 | 34.93188 | 33.23536 | 7103 ft | 295 kts | 139° |
| 2026-04-15 15:14 | 34.91669 | 33.25189 | 6784 ft | 294 kts | 139° |
| 2026-04-15 15:14 | 34.90144 | 33.26844 | 6435 ft | 294 kts | 139° |
| 2026-04-15 15:14 | 34.88624 | 33.28493 | 6083 ft | 290 kts | 138° |
| 2026-04-15 15:15 | 34.87133 | 33.30107 | 5757 ft | 286 kts | 138° |
| 2026-04-15 15:15 | 34.85675 | 33.31688 | 5452 ft | 275 kts | 137° |
| 2026-04-15 15:15 | 34.84274 | 33.33208 | 5159 ft | 263 kts | 137° |
| 2026-04-15 15:15 | 34.82918 | 33.34678 | 4869 ft | 260 kts | 136° |
| 2026-04-15 15:16 | 34.81579 | 33.36128 | 4575 ft | 255 kts | 135° |
| 2026-04-15 15:16 | 34.80278 | 33.37539 | 4271 ft | 245 kts | 135° |
| 2026-04-15 15:16 | 34.79024 | 33.38892 | 3989 ft | 237 kts | 135° |
| 2026-04-15 15:16 | 34.77819 | 33.40194 | 3689 ft | 227 kts | 135° |
| 2026-04-15 15:17 | 34.76658 | 33.41450 | 3404 ft | 220 kts | 135° |
| 2026-04-15 15:17 | 34.75528 | 33.42673 | 3112 ft | 215 kts | 135° |
| 2026-04-15 15:17 | 34.74588 | 33.44018 | 2814 ft | 206 kts | 112° |
| 2026-04-15 15:17 | 34.74373 | 33.45682 | 2527 ft | 198 kts | 81° |
| 2026-04-15 15:18 | 34.74906 | 33.47181 | 2227 ft | 193 kts | 50° |
| 2026-04-15 15:18 | 34.75820 | 33.48303 | 2056 ft | 178 kts | 46° |
| 2026-04-15 15:18 | 34.76670 | 33.49334 | 2009 ft | 169 kts | 47° |
| 2026-04-15 15:18 | 34.77499 | 33.50343 | 2011 ft | 168 kts | 45° |
| 2026-04-15 15:19 | 34.78316 | 33.51338 | 2012 ft | 166 kts | 47° |
| 2026-04-15 15:19 | 34.79130 | 33.52333 | 2002 ft | 167 kts | 45° |
| 2026-04-15 15:19 | 34.79949 | 33.53334 | 1856 ft | 166 kts | 44° |
| 2026-04-15 15:19 | 34.80731 | 33.54290 | 1628 ft | 152 kts | 45° |
| 2026-04-15 15:20 | 34.81457 | 33.55186 | 1370 ft | 147 kts | 45° |
| 2026-04-15 15:20 | 34.82161 | 33.56062 | 1165 ft | 143 kts | 45° |
| 2026-04-15 15:20 | 34.82860 | 33.56928 | 980 ft | 143 kts | 44° |
| 2026-04-15 15:20 | 34.83558 | 33.57783 | 791 ft | 142 kts | 43° |
| 2026-04-15 15:21 | 34.84259 | 33.58620 | 619 ft | 140 kts | 43° |
| 2026-04-15 15:21 | 34.84949 | 33.59453 | 450 ft | 140 kts | 45° |
| 2026-04-15 15:21 | 34.85641 | 33.60292 | 259 ft | 140 kts | 45° |
| 2026-04-15 15:21 | 34.86321 | 33.61106 | 91 ft | 134 kts | 44° |
| 2026-04-15 15:22 | 34.86938 | 33.61851 | 22 ft | 112 kts | 45° |
| 2026-04-15 15:22 | 34.87268 | 33.62256 | 20 ft | 38 kts | 45° |
| 2026-04-15 15:22 | 34.87442 | 33.62472 | 15 ft | 34 kts | 43° |
| 2026-04-15 15:22 | 34.87595 | 33.62657 | 18 ft | 29 kts | 45° |
| 2026-04-15 15:23 | 34.87726 | 33.62821 | 21 ft | 25 kts | 45° |
| 2026-04-15 15:23 | 34.87834 | 33.62925 | 21 ft | 17 kts | 12° |
| 2026-04-15 15:23 | 34.87913 | 33.62849 | 22 ft | 14 kts | 313° |
| 2026-04-15 15:23 | 34.87955 | 33.62748 | 21 ft | 14 kts | 255° |
| 2026-04-15 15:24 | 34.87895 | 33.62669 | 23 ft | 12 kts | 225° |
| 2026-04-15 15:24 | 34.87838 | 33.62598 | 20 ft | 12 kts | 225° |
| 2026-04-15 15:24 | 34.87778 | 33.62525 | 18 ft | 12 kts | 225° |
| 2026-04-15 15:24 | 34.87719 | 33.62452 | 20 ft | 14 kts | 225° |
| 2026-04-15 15:25 | 34.87638 | 33.62353 | 19 ft | 19 kts | 225° |
| 2026-04-15 15:25 | 34.87548 | 33.62244 | 18 ft | 17 kts | 225° |
| 2026-04-15 15:25 | 34.87471 | 33.62151 | 19 ft | 15 kts | 225° |
| 2026-04-15 15:25 | 34.87394 | 33.62055 | 18 ft | 17 kts | 226° |
| 2026-04-15 15:26 | 34.87313 | 33.61956 | 21 ft | 17 kts | 224° |
| 2026-04-15 15:26 | 34.87214 | 33.61833 | 21 ft | 25 kts | 225° |
| 2026-04-15 15:26 | 34.87079 | 33.61668 | 21 ft | 20 kts | 225° |
| 2026-04-15 15:26 | 34.86961 | 33.61523 | 18 ft | 25 kts | 225° |
| 2026-04-15 15:27 | 34.86854 | 33.61390 | 18 ft | 26 kts | 225° |
| 2026-04-15 15:27 | 34.86730 | 33.61241 | 19 ft | 23 kts | 224° |
| 2026-04-15 15:27 | 34.86638 | 33.61121 | 21 ft | 16 kts | 249° |
| 2026-04-15 15:27 | 34.86694 | 33.61016 | 21 ft | 15 kts | 315° |
| 2026-04-15 15:28 | 34.86758 | 33.60936 | 20 ft | 4 kts | 315° |
| 2026-04-15 15:28 | 34.86759 | 33.60936 | 20 ft | 0 kts | 315° |
| 2026-04-15 15:28 | 34.86778 | 33.60927 | 20 ft | 5 kts | 357° |
| 2026-04-15 15:28 | 34.86805 | 33.60957 | 23 ft | 6 kts | 46° |
| 2026-04-15 15:29 | 34.86834 | 33.60993 | 22 ft | 3 kts | 45° |
| 2026-04-15 15:29 | 34.86839 | 33.60999 | 21 ft | 0 kts | 45° |